Main page
METAR-TAF:

METAR-TAF

Airports :

Maringá Regional Airport

Maringá, Paraná, Brazil

latitude: 23-25S, longitude: 051-57W, elevation: 542 m

Current weather observation

The report was made 38 minutes ago, at 03:00 UTC
Wind 8 kt from the East
Temperature 16°C
Humidity 77%
Pressure 1024 hPa
Visibility 10 km or more
Few clouds at a height of 3000 ft

METAR: SBMG 170300Z 10008KT 9999 FEW030 16/12 Q1024

Time: 00:38 (03:38 UTC)


TAF: missing

Weather observations and forecasts of more than 4000 airports (METAR and TAF reports).

The available stations are represented by yellow and red dots on the map.

Hover mouse over dot to see the name of the station.

Then click to see weather observations and forecasts.

To change the map : click on the green buttons with a black cross to zoom in, on the green button with a dash to zoom out, or on the green arrows for adjacent maps.


METAR-TAF: